createdAt,value
2022-12-20T00:01:43.337Z,33.03
2022-12-20T00:04:12.841Z,32.33
2022-12-20T00:06:41.542Z,30.40
2022-12-20T00:09:09.656Z,29.40
2022-12-20T00:11:39.604Z,28.98
2022-12-20T00:14:07.574Z,29.73
2022-12-20T00:16:36.344Z,34.17
2022-12-20T00:19:05.998Z,32.60
2022-12-20T00:21:34.867Z,36.10
2022-12-20T00:24:02.699Z,33.70
2022-12-20T00:26:32.119Z,29.70
2022-12-20T00:29:00.435Z,29.60
2022-12-20T00:31:29.218Z,29.95
2022-12-20T00:33:57.912Z,29.63
2022-12-20T00:36:27.447Z,30.02
2022-12-20T00:38:56.073Z,28.80
2022-12-20T00:41:28.872Z,32.95
2022-12-20T00:43:56.151Z,29.23
2022-12-20T00:46:24.832Z,34.95
2022-12-20T00:48:53.067Z,30.80
2022-12-20T00:51:25.713Z,30.95
2022-12-20T00:53:53.676Z,30.90
2022-12-20T00:56:21.505Z,33.03
2022-12-20T00:58:49.512Z,30.83
2022-12-20T01:01:26.724Z,29.38
2022-12-20T01:03:55.117Z,30.42
2022-12-20T01:06:25.358Z,31.58
2022-12-20T01:08:54.292Z,32.35
2022-12-20T01:11:30.700Z,28.33
2022-12-20T01:13:59.823Z,27.75
2022-12-20T01:16:37.136Z,29.17
2022-12-20T01:19:05.157Z,24.92
2022-12-20T01:21:32.355Z,24.42
2022-12-20T01:23:59.379Z,27.65
2022-12-20T01:26:29.168Z,23.25
2022-12-20T01:28:59.183Z,24.25
2022-12-20T01:31:27.695Z,25.25
2022-12-20T01:33:55.015Z,24.27
2022-12-20T01:36:27.833Z,22.70
2022-12-20T01:39:02.965Z,23.48
2022-12-20T01:41:32.267Z,21.80
2022-12-20T01:44:01.881Z,21.38
2022-12-20T01:46:32.308Z,21.20
2022-12-20T01:49:17.556Z,21.70
2022-12-20T01:51:48.284Z,21.42
2022-12-20T01:54:26.747Z,19.77
2022-12-20T01:57:05.508Z,22.33
2022-12-20T01:59:36.647Z,20.77
2022-12-20T02:02:08.677Z,23.33
2022-12-20T02:04:36.363Z,21.60
2022-12-20T02:07:04.895Z,24.80
2022-12-20T02:09:34.270Z,18.60
2022-12-20T02:12:21.041Z,22.45
2022-12-20T02:15:24.476Z,20.02
2022-12-20T02:18:17.301Z,21.80
2022-12-20T02:21:04.045Z,18.15
2022-12-20T02:24:22.742Z,21.40
2022-12-20T02:27:18.787Z,21.05
2022-12-20T02:30:09.352Z,21.27
2022-12-20T02:32:51.875Z,24.05
2022-12-20T02:35:25.602Z,24.95
2022-12-20T02:37:56.065Z,23.03
2022-12-20T02:40:42.593Z,24.15
2022-12-20T02:43:29.159Z,23.60
2022-12-20T02:45:59.403Z,25.10
2022-12-20T02:48:31.006Z,23.15
2022-12-20T02:51:00.855Z,23.20
2022-12-20T02:53:29.752Z,22.33
2022-12-20T02:56:14.698Z,24.88
2022-12-20T03:01:25.713Z,23.40
2022-12-20T03:03:54.607Z,24.75
2022-12-20T03:06:22.182Z,22.45
2022-12-20T03:08:49.254Z,23.65
2022-12-20T03:11:16.724Z,24.58
2022-12-20T03:13:44.070Z,20.55
2022-12-20T03:16:11.449Z,22.05
2022-12-20T03:18:39.246Z,23.48
2022-12-20T03:21:06.503Z,22.90
2022-12-20T03:23:34.302Z,23.95
2022-12-20T03:26:02.107Z,25.27
2022-12-20T03:28:29.644Z,26.60
2022-12-20T03:30:56.689Z,26.35
2022-12-20T03:33:23.839Z,25.63
2022-12-20T03:35:50.932Z,26.05
2022-12-20T03:38:18.046Z,24.33
2022-12-20T03:40:45.292Z,26.08
2022-12-20T03:43:12.458Z,23.65
2022-12-20T03:45:39.533Z,23.70
2022-12-20T03:48:06.761Z,21.83
2022-12-20T03:50:34.591Z,26.30
2022-12-20T03:53:01.891Z,25.50
2022-12-20T03:55:29.025Z,22.80
2022-12-20T03:57:56.210Z,20.80
2022-12-20T04:00:23.598Z,26.15
2022-12-20T04:02:51.120Z,20.77
2022-12-20T04:05:18.724Z,20.13
2022-12-20T04:07:46.059Z,19.65
2022-12-20T04:10:13.676Z,21.33
2022-12-20T04:12:40.868Z,22.42
2022-12-20T04:15:09.166Z,22.45
2022-12-20T04:17:36.227Z,23.52
2022-12-20T04:20:19.168Z,24.33
2022-12-20T04:22:51.510Z,23.05
2022-12-20T04:25:21.386Z,22.17
2022-12-20T04:27:48.676Z,26.45
2022-12-20T04:30:15.923Z,20.13
2022-12-20T04:32:43.010Z,18.27
2022-12-20T04:35:10.517Z,19.02
2022-12-20T04:37:37.800Z,19.02
2022-12-20T04:40:05.658Z,20.42
2022-12-20T04:42:33.575Z,20.40
2022-12-20T04:45:00.663Z,20.15
2022-12-20T04:47:27.734Z,21.48
2022-12-20T04:49:54.904Z,17.88
2022-12-20T04:52:45.658Z,19.10
2022-12-20T04:55:15.184Z,20.00
2022-12-20T04:57:42.422Z,18.75
2022-12-20T05:00:10.543Z,19.02
2022-12-20T05:02:38.244Z,21.48
2022-12-20T05:05:05.706Z,19.10
2022-12-20T05:07:32.937Z,18.20
2022-12-20T05:10:00.135Z,19.02
2022-12-20T05:12:27.266Z,23.70
2022-12-20T05:14:54.300Z,22.33
2022-12-20T05:17:21.693Z,19.05
2022-12-20T05:19:48.823Z,19.02
2022-12-20T05:22:42.378Z,17.95
2022-12-20T05:25:31.705Z,20.35
2022-12-20T05:27:59.261Z,20.70
2022-12-20T05:30:26.758Z,19.75
2022-12-20T05:32:53.952Z,20.63
2022-12-20T05:35:21.090Z,20.75
2022-12-20T05:37:48.352Z,19.23
2022-12-20T05:40:16.246Z,21.20
2022-12-20T05:42:43.592Z,21.08
2022-12-20T05:45:11.308Z,17.88
2022-12-20T05:47:39.157Z,18.42
2022-12-20T05:50:07.046Z,18.85
2022-12-20T05:52:34.233Z,20.25
2022-12-20T05:55:01.339Z,20.67
2022-12-20T05:57:28.668Z,23.02
2022-12-20T05:59:55.871Z,21.85
2022-12-20T06:02:23.193Z,21.42
2022-12-20T06:04:50.488Z,20.67
2022-12-20T06:07:18.957Z,24.42
2022-12-20T06:09:46.050Z,25.52
2022-12-20T06:12:14.183Z,23.35
2022-12-20T06:14:41.286Z,21.80
2022-12-20T06:17:08.503Z,20.80
2022-12-20T06:19:35.695Z,20.17
2022-12-20T06:22:03.599Z,19.83
2022-12-20T06:24:31.208Z,18.65
2022-12-20T06:26:58.660Z,17.27
2022-12-20T06:29:25.823Z,17.33
2022-12-20T06:31:53.257Z,17.75
2022-12-20T06:34:21.098Z,22.58
2022-12-20T06:36:48.142Z,19.23
2022-12-20T06:39:15.424Z,17.42
2022-12-20T06:41:42.556Z,18.48
2022-12-20T06:44:09.649Z,20.52
2022-12-20T06:46:36.890Z,16.90
2022-12-20T06:49:04.273Z,19.88
2022-12-20T06:51:31.743Z,25.90
2022-12-20T06:53:58.788Z,24.00
2022-12-20T06:56:25.947Z,19.77
2022-12-20T06:58:53.124Z,21.67
2022-12-20T07:01:20.273Z,17.48
2022-12-20T07:03:47.706Z,17.83
2022-12-20T07:06:14.863Z,19.98
2022-12-20T07:08:42.128Z,17.90
2022-12-20T07:11:09.083Z,19.80
2022-12-20T07:13:36.177Z,17.70
2022-12-20T07:16:04.673Z,19.30
2022-12-20T07:18:32.818Z,19.95
2022-12-20T07:21:01.902Z,17.85
2022-12-20T07:23:29.323Z,20.92
2022-12-20T07:25:58.018Z,19.17
2022-12-20T07:28:26.263Z,19.98
2022-12-20T07:30:54.622Z,39.35
2022-12-20T07:33:22.013Z,20.92
2022-12-20T07:35:54.403Z,16.02
2022-12-20T07:38:21.973Z,17.30
2022-12-20T07:40:49.013Z,18.30
2022-12-20T07:43:16.152Z,16.58
2022-12-20T07:45:43.325Z,16.15
2022-12-20T07:48:15.706Z,15.43
2022-12-20T07:50:47.253Z,16.42
2022-12-20T07:53:14.697Z,14.20
2022-12-20T07:55:42.564Z,15.57
2022-12-20T07:58:12.182Z,14.52
2022-12-20T08:00:39.521Z,15.90
2022-12-20T08:03:31.932Z,20.08
2022-12-20T08:06:04.036Z,16.33
2022-12-20T08:08:33.435Z,18.92
2022-12-20T08:11:00.601Z,13.77
2022-12-20T08:13:27.835Z,16.13
2022-12-20T08:15:54.868Z,14.75
2022-12-20T08:18:21.867Z,15.07
2022-12-20T08:20:49.107Z,15.30
2022-12-20T08:23:16.428Z,13.57
2022-12-20T08:25:43.797Z,16.35
2022-12-20T08:28:11.285Z,15.27
2022-12-20T08:30:38.398Z,13.35
2022-12-20T08:33:05.878Z,13.32
2022-12-20T08:35:32.965Z,14.13
2022-12-20T08:38:00.051Z,13.95
2022-12-20T08:40:27.298Z,13.50
2022-12-20T08:42:54.409Z,13.93
2022-12-20T08:45:21.722Z,13.27
2022-12-20T08:47:49.072Z,12.45
2022-12-20T08:50:16.463Z,12.90
2022-12-20T08:52:43.579Z,12.90
2022-12-20T08:55:13.004Z,13.98
2022-12-20T08:57:40.626Z,15.90
2022-12-20T09:00:08.386Z,15.32
2022-12-20T09:02:38.380Z,11.85
2022-12-20T09:05:06.215Z,13.52
2022-12-20T09:07:33.681Z,12.55
2022-12-20T09:10:00.916Z,11.15
2022-12-20T09:12:27.968Z,15.48
2022-12-20T09:14:55.088Z,11.43
2022-12-20T09:17:22.188Z,9.80
2022-12-20T09:19:49.285Z,15.27
2022-12-20T09:22:16.370Z,13.98
2022-12-20T09:24:43.764Z,13.55
2022-12-20T09:27:10.864Z,13.48
2022-12-20T09:29:37.931Z,17.70
2022-12-20T09:32:05.168Z,12.25
2022-12-20T09:34:32.384Z,14.05
2022-12-20T09:36:59.682Z,12.57
2022-12-20T09:39:27.140Z,20.48
2022-12-20T09:41:54.473Z,25.45
2022-12-20T09:44:30.902Z,16.10
2022-12-20T09:47:20.735Z,16.70
2022-12-20T09:49:51.412Z,19.58
2022-12-20T09:52:24.427Z,13.10
2022-12-20T09:55:17.499Z,12.32
2022-12-20T09:57:53.716Z,12.73
2022-12-20T10:00:21.293Z,13.98
2022-12-20T10:03:09.892Z,24.80
2022-12-20T10:05:54.297Z,18.27
2022-12-20T10:08:40.243Z,13.27
2022-12-20T10:11:39.590Z,17.10
2022-12-20T10:14:37.602Z,20.83
2022-12-20T10:17:32.066Z,16.75
2022-12-20T10:20:11.608Z,13.13
2022-12-20T10:22:45.915Z,12.70
2022-12-20T10:25:31.263Z,12.85
2022-12-20T10:28:03.284Z,13.32
2022-12-20T10:30:32.815Z,12.45
2022-12-20T10:33:00.062Z,22.52
2022-12-20T10:35:31.460Z,30.98
2022-12-20T10:38:07.897Z,28.98
2022-12-20T10:43:36.825Z,14.45
2022-12-20T10:46:06.856Z,12.75
2022-12-20T10:48:41.223Z,13.98
2022-12-20T10:51:15.859Z,12.98
2022-12-20T10:53:59.077Z,12.18
2022-12-20T10:56:29.216Z,11.25
2022-12-20T10:59:02.899Z,11.30
2022-12-20T11:01:33.641Z,11.43
2022-12-20T11:04:07.613Z,8.88
2022-12-20T11:06:37.664Z,12.52
2022-12-20T11:09:22.811Z,12.23
2022-12-20T11:12:06.651Z,12.48
2022-12-20T11:14:39.640Z,15.18
2022-12-20T11:17:13.114Z,14.18
2022-12-20T11:20:22.250Z,12.88
2022-12-20T11:23:12.204Z,14.30
2022-12-20T11:25:55.825Z,15.23
2022-12-20T11:28:47.951Z,15.75
2022-12-20T11:31:41.603Z,21.88
2022-12-20T11:34:37.607Z,22.42
2022-12-20T11:37:10.767Z,24.73
2022-12-20T11:39:48.380Z,24.63
2022-12-20T11:42:44.160Z,19.00
2022-12-20T11:47:53.494Z,15.20
2022-12-20T11:50:33.056Z,13.90
2022-12-20T11:53:14.585Z,13.18
2022-12-20T11:55:44.862Z,19.60
2022-12-20T11:58:19.747Z,19.33
2022-12-20T12:01:03.778Z,14.23
2022-12-20T12:03:39.998Z,15.07
2022-12-20T12:06:22.203Z,13.80
2022-12-20T12:09:06.558Z,14.45
2022-12-20T12:12:05.862Z,12.18
2022-12-20T12:14:34.690Z,13.15
2022-12-20T12:17:10.436Z,15.52
2022-12-20T12:19:42.504Z,12.93
2022-12-20T12:22:20.266Z,18.88
2022-12-20T12:24:56.349Z,18.70
2022-12-20T12:27:26.345Z,17.70
2022-12-20T12:29:54.944Z,24.23
2022-12-20T12:32:44.537Z,17.77
2022-12-20T12:35:49.297Z,14.77
2022-12-20T12:38:44.394Z,15.00
2022-12-20T12:42:07.475Z,12.45
2022-12-20T12:45:04.029Z,13.60
2022-12-20T12:48:03.179Z,15.45
2022-12-20T12:50:46.257Z,13.98
2022-12-20T12:53:17.835Z,12.95
2022-12-20T12:56:07.500Z,11.75
2022-12-20T12:58:48.428Z,13.70
2022-12-20T13:01:54.191Z,12.85
2022-12-20T13:04:26.458Z,14.45
2022-12-20T13:06:59.921Z,16.02
2022-12-20T13:09:27.198Z,15.23
2022-12-20T13:12:02.390Z,18.45
2022-12-20T13:14:30.471Z,14.30
2022-12-20T13:17:20.764Z,13.02
2022-12-20T13:19:55.494Z,19.02
2022-12-20T13:22:23.838Z,15.52
2022-12-20T13:25:04.213Z,12.25
2022-12-20T13:27:36.008Z,13.45
2022-12-20T13:30:12.405Z,16.63
2022-12-20T13:32:48.839Z,13.50
2022-12-20T13:35:24.904Z,16.48
2022-12-20T13:38:04.201Z,12.88
2022-12-20T13:40:48.119Z,13.52
2022-12-20T13:43:21.944Z,12.63
2022-12-20T13:45:53.335Z,15.13
2022-12-20T13:48:26.378Z,12.77
2022-12-20T13:50:57.710Z,12.93
2022-12-20T13:53:30.124Z,12.60
2022-12-20T13:55:57.598Z,9.27
2022-12-20T13:58:34.406Z,9.23
2022-12-20T14:01:11.770Z,10.00
2022-12-20T14:03:46.196Z,12.02
2022-12-20T14:06:15.431Z,14.63
2022-12-20T14:08:47.098Z,11.77
2022-12-20T14:11:18.984Z,12.43
2022-12-20T14:13:55.079Z,14.60
2022-12-20T14:16:24.287Z,15.88
2022-12-20T14:18:58.299Z,18.42
2022-12-20T14:21:26.685Z,15.27
2022-12-20T14:23:57.779Z,23.35
2022-12-20T14:26:28.984Z,21.08
2022-12-20T14:29:01.615Z,18.92
2022-12-20T14:31:37.549Z,35.67
2022-12-20T14:34:13.701Z,28.92
2022-12-20T14:36:48.474Z,34.20
2022-12-20T14:39:23.100Z,21.83
2022-12-20T14:44:25.010Z,11.65
2022-12-20T14:46:58.487Z,10.00
2022-12-20T14:49:32.840Z,11.68
2022-12-20T14:52:12.179Z,13.30
2022-12-20T14:57:36.043Z,13.00
2022-12-20T15:00:14.331Z,23.83
2022-12-20T15:02:51.999Z,40.53
2022-12-20T15:05:34.920Z,11.30
2022-12-20T15:08:15.563Z,14.98
2022-12-20T15:10:53.956Z,12.43
2022-12-20T15:13:26.852Z,16.45
2022-12-20T15:15:54.148Z,18.73
2022-12-20T15:18:22.142Z,16.33
2022-12-20T15:21:00.765Z,17.73
2022-12-20T15:23:28.059Z,15.77
2022-12-20T15:25:56.389Z,9.88
2022-12-20T15:28:25.664Z,13.77
2022-12-20T15:30:53.760Z,17.95
2022-12-20T15:33:32.377Z,17.13
2022-12-20T15:36:00.335Z,12.63
2022-12-20T15:38:48.262Z,15.93
2022-12-20T15:41:27.639Z,25.65
2022-12-20T15:44:06.015Z,15.00
2022-12-20T15:46:33.815Z,13.65
2022-12-20T15:49:01.201Z,14.55
2022-12-20T15:51:34.945Z,16.63
2022-12-20T15:54:04.991Z,17.07
2022-12-20T15:56:33.123Z,13.88
2022-12-20T15:59:00.491Z,14.05
2022-12-20T16:01:40.395Z,13.82
2022-12-20T16:04:13.857Z,17.80
2022-12-20T16:06:41.853Z,30.70
2022-12-20T16:09:08.924Z,41.58
2022-12-20T16:11:36.794Z,33.88
2022-12-20T16:14:04.189Z,38.08
2022-12-20T16:16:34.855Z,22.23
2022-12-20T16:19:04.078Z,17.85
2022-12-20T16:21:34.432Z,13.95
2022-12-20T16:24:01.916Z,15.52
2022-12-20T16:26:29.277Z,13.77
2022-12-20T16:28:57.398Z,12.15
2022-12-20T16:31:38.727Z,15.45
2022-12-20T16:34:12.952Z,22.27
2022-12-20T16:36:40.311Z,14.77
2022-12-20T16:39:10.121Z,20.25
2022-12-20T16:41:39.287Z,16.88
2022-12-20T16:44:06.895Z,16.85
2022-12-20T16:46:34.959Z,18.15
2022-12-20T16:49:02.187Z,24.88
2022-12-20T16:51:40.700Z,21.42
2022-12-20T16:54:20.920Z,30.52
2022-12-20T16:56:57.541Z,25.38
2022-12-20T16:59:25.378Z,20.02
2022-12-20T17:01:55.347Z,21.45
2022-12-20T17:04:24.046Z,14.32
2022-12-20T17:06:51.180Z,13.30
2022-12-20T17:09:19.732Z,15.13
2022-12-20T17:11:47.940Z,15.20
2022-12-20T17:14:15.142Z,15.85
2022-12-20T17:16:42.396Z,25.92
2022-12-20T17:19:10.932Z,85.75
2022-12-20T17:24:27.041Z,34.65
2022-12-20T17:26:55.431Z,31.13
2022-12-20T17:29:22.702Z,21.13
2022-12-20T17:31:49.832Z,17.02
2022-12-20T17:34:22.273Z,16.48
2022-12-20T17:36:51.741Z,15.65
2022-12-20T17:39:18.933Z,14.77
2022-12-20T17:41:47.224Z,20.38
2022-12-20T17:44:19.230Z,18.67
2022-12-20T17:46:47.077Z,30.13
2022-12-20T17:49:14.855Z,24.63
2022-12-20T17:51:42.244Z,19.77
2022-12-20T17:54:18.417Z,20.85
2022-12-20T17:56:46.231Z,30.27
2022-12-20T17:59:14.518Z,27.92
2022-12-20T18:01:43.505Z,23.92
2022-12-20T18:04:13.658Z,25.23
2022-12-20T18:06:42.732Z,23.33
2022-12-20T18:09:18.756Z,100.70
2022-12-20T18:11:46.217Z,70.82
2022-12-20T18:14:14.194Z,43.75
2022-12-20T18:16:41.736Z,35.95
2022-12-20T18:19:15.995Z,64.78
2022-12-20T18:21:43.085Z,73.18
2022-12-20T18:24:12.215Z,64.30
2022-12-20T18:26:39.588Z,66.55
2022-12-20T18:29:06.693Z,51.15
2022-12-20T18:31:35.406Z,36.53
2022-12-20T18:34:03.360Z,27.48
2022-12-20T18:36:34.802Z,22.10
2022-12-20T18:39:04.665Z,18.40
2022-12-20T18:41:32.414Z,21.10
2022-12-20T18:44:02.114Z,19.58
2022-12-20T18:46:30.574Z,17.95
2022-12-20T18:48:59.892Z,36.90
2022-12-20T18:51:29.415Z,20.38
2022-12-20T18:53:58.488Z,18.83
2022-12-20T18:56:33.505Z,14.70
2022-12-20T18:59:08.172Z,15.00
2022-12-20T19:01:39.423Z,16.17
2022-12-20T19:04:07.620Z,15.88
2022-12-20T19:06:36.132Z,17.15
2022-12-20T19:09:08.004Z,17.33
2022-12-20T19:11:35.917Z,17.10
2022-12-20T19:14:03.723Z,15.57
2022-12-20T19:16:32.847Z,15.60
2022-12-20T19:19:01.785Z,13.00
2022-12-20T19:21:31.512Z,12.05
2022-12-20T19:24:00.894Z,14.40
2022-12-20T19:26:29.824Z,14.77
2022-12-20T19:28:58.205Z,13.70
2022-12-20T19:31:27.909Z,16.05
2022-12-20T19:33:57.747Z,16.90
2022-12-20T19:36:28.525Z,12.88
2022-12-20T19:38:58.206Z,13.18
2022-12-20T19:41:30.544Z,14.65
2022-12-20T19:43:58.286Z,14.80
2022-12-20T19:46:29.059Z,15.93
2022-12-20T19:48:59.021Z,27.77
2022-12-20T19:51:28.414Z,19.27
2022-12-20T19:53:56.850Z,27.13
2022-12-20T19:56:30.266Z,20.70
2022-12-20T19:58:57.512Z,15.63
2022-12-20T20:01:27.150Z,17.35
2022-12-20T20:03:56.129Z,18.52
2022-12-20T20:06:24.116Z,15.73
2022-12-20T20:08:51.962Z,17.23
2022-12-20T20:11:21.125Z,15.98
2022-12-20T20:13:48.371Z,17.70
2022-12-20T20:16:21.624Z,19.42
2022-12-20T20:18:50.192Z,18.02
2022-12-20T20:21:21.308Z,19.33
2022-12-20T20:23:52.795Z,17.15
2022-12-20T20:26:23.331Z,19.73
2022-12-20T20:28:50.987Z,17.00
2022-12-20T20:31:19.651Z,17.63
2022-12-20T20:33:46.910Z,21.80
2022-12-20T20:36:18.103Z,18.23
2022-12-20T20:38:45.888Z,17.70
2022-12-20T20:41:14.309Z,16.25
2022-12-20T20:43:42.187Z,16.33
2022-12-20T20:46:12.036Z,15.55
2022-12-20T20:48:40.071Z,13.00
2022-12-20T20:51:07.683Z,13.25
2022-12-20T20:53:35.156Z,12.57
2022-12-20T20:56:03.585Z,14.50
2022-12-20T20:58:31.396Z,16.20
2022-12-20T21:01:01.092Z,20.10
2022-12-20T21:03:29.937Z,21.52
2022-12-20T21:08:45.495Z,17.75
2022-12-20T21:11:12.946Z,20.83
2022-12-20T21:13:40.396Z,16.52
2022-12-20T21:16:20.611Z,14.65
2022-12-20T21:18:52.817Z,20.50
2022-12-20T21:21:20.592Z,17.42
2022-12-20T21:23:48.361Z,16.67
2022-12-20T21:26:17.979Z,14.60
2022-12-20T21:28:45.897Z,15.05
2022-12-20T21:31:16.131Z,17.90
2022-12-20T21:33:44.610Z,15.02
2022-12-20T21:36:14.372Z,15.88
2022-12-20T21:38:41.790Z,16.35
2022-12-20T21:41:12.419Z,19.88
2022-12-20T21:43:39.813Z,18.33
2022-12-20T21:46:11.362Z,25.75
2022-12-20T21:48:40.353Z,22.65
2022-12-20T21:51:13.969Z,18.27
2022-12-20T21:53:49.593Z,16.60
2022-12-20T21:56:18.191Z,16.88
2022-12-20T21:58:45.805Z,15.77
2022-12-20T22:01:15.587Z,18.05
2022-12-20T22:03:44.445Z,15.43
2022-12-20T22:06:12.617Z,14.88
2022-12-20T22:08:39.863Z,15.00
2022-12-20T22:11:11.983Z,14.35
2022-12-20T22:13:41.783Z,14.30
2022-12-20T22:16:25.611Z,15.57
2022-12-20T22:18:54.571Z,15.38
2022-12-20T22:21:24.477Z,15.48
2022-12-20T22:23:51.847Z,13.77
2022-12-20T22:26:22.858Z,18.98
2022-12-20T22:28:52.694Z,13.68
2022-12-20T22:31:20.863Z,16.20
2022-12-20T22:33:49.463Z,12.45
2022-12-20T22:36:17.529Z,13.07
2022-12-20T22:38:45.000Z,16.55
2022-12-20T22:41:23.839Z,20.23
2022-12-20T22:43:51.346Z,21.33
2022-12-20T22:46:19.571Z,19.13
2022-12-20T22:48:47.684Z,20.48
2022-12-20T22:51:18.363Z,19.75
2022-12-20T22:53:47.553Z,21.75
2022-12-20T22:56:16.387Z,16.55
2022-12-20T22:58:44.013Z,17.25
2022-12-20T23:01:14.032Z,15.45
2022-12-20T23:03:41.869Z,14.98
2022-12-20T23:06:12.205Z,16.23
2022-12-20T23:08:39.712Z,15.18
2022-12-20T23:11:34.966Z,17.60
2022-12-20T23:16:48.324Z,15.48
2022-12-20T23:19:15.587Z,16.95
2022-12-20T23:22:01.252Z,14.77
2022-12-20T23:24:28.673Z,16.23
2022-12-20T23:26:56.008Z,16.48
2022-12-20T23:29:23.895Z,19.00
2022-12-20T23:31:51.556Z,18.00
2022-12-20T23:34:18.948Z,17.83
2022-12-20T23:36:46.119Z,17.10
2022-12-20T23:39:13.315Z,15.25
2022-12-20T23:41:40.588Z,19.55
2022-12-20T23:44:07.824Z,18.13
2022-12-20T23:46:34.940Z,19.90
2022-12-20T23:49:02.000Z,21.10
2022-12-20T23:51:29.381Z,21.10
2022-12-20T23:53:56.570Z,19.27
2022-12-20T23:56:24.061Z,17.08
2022-12-20T23:58:55.372Z,16.52
